Disclaimer

Please do not use the information listed here in-flight or in-navigation, as they are not provided to us by the airports but are provided by volunteers, so they might be outdated.

Search


Regions


Airport information page

Radio informations:
Tower (TWR) - 120.45 MHz
PREFLIGHT - 121.7 MHz
INFO - 135.2 MHz
Ground (GND) - 121.825 MHz
Automatic Terminal Information Service (ATIS) - 126.175 MHz
LYON APP - 120.225 MHz

Airport informations:
Latitude: 45° 43' 34.99" N
Longitude: 005° 05' 27.00" E
Elevation: 821 feet - 250 meters
Operating hours: 24 hour operations
Operating agency: Civil government, landing fees and diplomatic clearance may be required
Timezone: UTC+1(+2DT) - Last Sunday in March to last Sunday in October
Fuel: Jet A1, without icing nhibitor.

Runway information:
18R/36L - 13124 x 148 feet< - >4000 x 45 meters
18L/36R - 8760 x 148 feet< - >2670 x 45 meters

Recent METARs:
LFLL 210700Z 00000KT 4000 1800N BR SCT002 OVC012 05/04 Q1009 TEMPO 3000 BR
LFLL 210730Z 33002KT 2000 0800N R35L/P2000 R17R/1200D R35R/P2000 R17L/1100D FG BKN001 OVC010 04/04 Q1010 TEMPO 3000 BR
LFLL 210800Z VRB03KT 0600 R35L/1000N R17R/1000D R35R/0650N R17L/0900U FG VV/// 04/04 Q1010 NOSIG

Airport on the map: